Wetterdaten: Woche 18.08.14 - 24.08.14 (KW34)
Datum Zeit Temperatur Luftfeuchte Luftdruck Niederschlag Windrichtung Sonnenschein Solar Wind
18.08.2014 00:00 13,4 C 81 % 1011,8 hPa 0,0 l/m W-SW 0,00 h 0 W/m 8,2 km/h (2 Bft)
18.08.2014 01:00 12,6 C 84 % 1011,6 hPa 0,0 l/m W-SW 0,00 h 0 W/m 7,4 km/h (2 Bft)
18.08.2014 02:00 11,6 C 88 % 1011,3 hPa 0,0 l/m SW 0,00 h 0 W/m 7,2 km/h (2 Bft)
18.08.2014 03:00 10,5 C 93 % 1010,8 hPa 0,0 l/m SW 0,00 h 0 W/m 7,0 km/h (2 Bft)
18.08.2014 04:00 10,2 C 94 % 1010,3 hPa 0,0 l/m SW 0,00 h 0 W/m 6,7 km/h (2 Bft)
18.08.2014 05:00 10,7 C 95 % 1009,8 hPa 0,0 l/m SW 0,00 h 0 W/m 5,3 km/h (1 Bft)
18.08.2014 06:00 11,2 C 96 % 1009,9 hPa 0,0 l/m SW 0,00 h 10 W/m 8,2 km/h (2 Bft)
18.08.2014 07:00 12,5 C 93 % 1009,9 hPa 0,0 l/m SW 0,00 h 71 W/m 12,5 km/h (3 Bft)
18.08.2014 08:00 14,5 C 84 % 1009,9 hPa 0,0 l/m W-SW 0,00 h 96 W/m 18,8 km/h (3 Bft)
18.08.2014 09:00 14,6 C 80 % 1010,1 hPa 0,0 l/m W-SW 0,00 h 88 W/m 20,2 km/h (4 Bft)
18.08.2014 10:00 15,6 C 75 % 1010,1 hPa 0,0 l/m W-SW 0,50 h 433 W/m 24,9 km/h (4 Bft)
18.08.2014 11:00 17,5 C 70 % 1009,7 hPa 0,0 l/m W-SW 0,83 h 739 W/m 27,2 km/h (4 Bft)
18.08.2014 12:00 18,2 C 67 % 1009,3 hPa 0,0 l/m W 0,42 h 402 W/m 28,7 km/h (4 Bft)
18.08.2014 13:00 19,2 C 63 % 1008,8 hPa 0,0 l/m W-SW 0,50 h 518 W/m 32,7 km/h (5 Bft)
18.08.2014 14:00 20,2 C 59 % 1008,5 hPa 0,0 l/m W 0,67 h 599 W/m 31,1 km/h (5 Bft)
18.08.2014 15:00 20,4 C 59 % 1008,2 hPa 0,0 l/m W 0,33 h 377 W/m 24,7 km/h (4 Bft)
18.08.2014 16:00 21,0 C 59 % 1008,5 hPa 0,0 l/m W 0,42 h 414 W/m 19,6 km/h (3 Bft)
18.08.2014 17:00 20,8 C 56 % 1008,5 hPa 0,0 l/m W-NW 0,50 h 391 W/m 21,7 km/h (4 Bft)
18.08.2014 18:00 18,8 C 60 % 1009,1 hPa 0,0 l/m W-NW 0,17 h 134 W/m 19,4 km/h (3 Bft)
18.08.2014 19:00 17,5 C 62 % 1009,6 hPa 0,0 l/m W-NW 0,08 h 42 W/m 20,1 km/h (4 Bft)
18.08.2014 20:00 16,3 C 64 % 1010,0 hPa 0,0 l/m W-NW 0,00 h 9 W/m 17,7 km/h (3 Bft)
18.08.2014 21:00 15,3 C 68 % 1010,5 hPa 0,0 l/m W-NW 0,00 h 0 W/m 6,4 km/h (2 Bft)
18.08.2014 22:00 14,3 C 77 % 1010,7 hPa 0,0 l/m N 0,00 h 0 W/m 0,4 km/h (0 Bft)
18.08.2014 23:00 13,7 C 82 % 1010,8 hPa 0,0 l/m N 0,00 h 0 W/m 0,1 km/h (0 Bft)
19.08.2014 00:00 13,2 C 86 % 1010,7 hPa 0,0 l/m N 0,00 h 0 W/m 0,3 km/h (0 Bft)
19.08.2014 01:00 13,2 C 87 % 1010,2 hPa 0,0 l/m N 0,00 h 0 W/m 1,2 km/h (1 Bft)
19.08.2014 02:00 13,2 C 88 % 1009,8 hPa 0,0 l/m W-NW 0,00 h 0 W/m 3,7 km/h (1 Bft)
19.08.2014 03:00 12,9 C 90 % 1009,3 hPa 1,2 l/m W-NW 0,00 h 0 W/m 4,1 km/h (1 Bft)
19.08.2014 04:00 12,4 C 94 % 1009,3 hPa 0,0 l/m N 0,00 h 0 W/m 2,3 km/h (1 Bft)
19.08.2014 05:00 12,1 C 96 % 1009,6 hPa 0,0 l/m W-NW 0,00 h 0 W/m 1,6 km/h (1 Bft)
19.08.2014 06:00 11,9 C 97 % 1009,9 hPa 0,0 l/m N 0,00 h 8 W/m 0,1 km/h (0 Bft)
19.08.2014 07:00 12,0 C 97 % 1010,2 hPa 0,0 l/m N 0,00 h 32 W/m 0,4 km/h (0 Bft)
19.08.2014 08:00 12,4 C 97 % 1010,4 hPa 0,0 l/m W-NW 0,00 h 91 W/m 3,5 km/h (1 Bft)
19.08.2014 09:00 13,7 C 93 % 1010,5 hPa 0,0 l/m S-SW 0,08 h 165 W/m 8,6 km/h (2 Bft)
19.08.2014 10:00 14,3 C 91 % 1010,7 hPa 0,0 l/m SW 0,00 h 132 W/m 4,7 km/h (1 Bft)
19.08.2014 11:00 15,5 C 85 % 1010,8 hPa 0,0 l/m W-SW 0,25 h 346 W/m 9,8 km/h (2 Bft)
19.08.2014 12:00 17,6 C 72 % 1010,6 hPa 0,0 l/m W 0,83 h 791 W/m 20,9 km/h (4 Bft)
19.08.2014 13:00 18,9 C 63 % 1010,4 hPa 0,0 l/m SW 0,50 h 557 W/m 25,3 km/h (4 Bft)
19.08.2014 14:00 18,7 C 62 % 1010,3 hPa 0,0 l/m W-SW 0,17 h 438 W/m 20,8 km/h (4 Bft)
19.08.2014 15:00 19,3 C 61 % 1010,3 hPa 0,0 l/m W-SW 0,17 h 392 W/m 18,9 km/h (3 Bft)
19.08.2014 16:00 19,3 C 57 % 1010,2 hPa 0,0 l/m W 0,58 h 414 W/m 20,0 km/h (4 Bft)
19.08.2014 17:00 19,5 C 54 % 1010,4 hPa 0,0 l/m W 0,25 h 242 W/m 17,3 km/h (3 Bft)
19.08.2014 18:00 18,2 C 59 % 1010,6 hPa 0,0 l/m W 0,00 h 96 W/m 10,3 km/h (2 Bft)
19.08.2014 19:00 17,3 C 66 % 1011,1 hPa 0,0 l/m W 0,08 h 34 W/m 4,0 km/h (1 Bft)
19.08.2014 20:00 16,0 C 71 % 1011,6 hPa 0,0 l/m W 0,00 h 6 W/m 3,7 km/h (1 Bft)
19.08.2014 21:00 15,0 C 76 % 1012,4 hPa 0,0 l/m N 0,00 h 0 W/m 1,5 km/h (1 Bft)
19.08.2014 22:00 14,3 C 77 % 1012,9 hPa 0,0 l/m W 0,00 h 0 W/m 3,5 km/h (1 Bft)
19.08.2014 23:00 14,3 C 77 % 1013,3 hPa 0,0 l/m N 0,00 h 0 W/m 0,4 km/h (0 Bft)
20.08.2014 00:00 13,6 C 84 % 1013,6 hPa 0,0 l/m N 0,00 h 0 W/m 0,7 km/h (0 Bft)
20.08.2014 01:00 13,0 C 84 % 1013,7 hPa 0,0 l/m W 0,00 h 0 W/m 2,3 km/h (1 Bft)
20.08.2014 02:00 12,9 C 81 % 1013,7 hPa 0,0 l/m N 0,00 h 0 W/m 1,5 km/h (1 Bft)
20.08.2014 03:00 12,4 C 86 % 1013,9 hPa 0,0 l/m N 0,00 h 0 W/m 0,0 km/h (0 Bft)
20.08.2014 04:00 11,8 C 88 % 1014,1 hPa 0,0 l/m N 0,00 h 0 W/m 1,1 km/h (0 Bft)
20.08.2014 05:00 11,6 C 87 % 1014,4 hPa 0,0 l/m N 0,00 h 0 W/m 1,2 km/h (1 Bft)
20.08.2014 06:00 11,6 C 89 % 1014,3 hPa 0,0 l/m N 0,00 h 7 W/m 0,5 km/h (0 Bft)
20.08.2014 07:00 11,6 C 90 % 1014,5 hPa 0,0 l/m N 0,00 h 14 W/m 0,7 km/h (0 Bft)
20.08.2014 08:00 11,8 C 90 % 1014,6 hPa 0,0 l/m N 0,00 h 24 W/m 1,7 km/h (1 Bft)
20.08.2014 09:00 12,2 C 85 % 1014,8 hPa 0,0 l/m W 0,00 h 42 W/m 3,1 km/h (1 Bft)
20.08.2014 10:00 13,0 C 82 % 1015,0 hPa 0,0 l/m W 0,00 h 123 W/m 4,8 km/h (1 Bft)
20.08.2014 11:00 13,6 C 78 % 1014,8 hPa 0,0 l/m NO 0,00 h 142 W/m 7,2 km/h (2 Bft)
20.08.2014 12:00 14,7 C 74 % 1014,6 hPa 0,0 l/m O 0,25 h 327 W/m 8,0 km/h (2 Bft)
20.08.2014 13:00 16,3 C 64 % 1014,4 hPa 0,0 l/m O-NO 0,58 h 471 W/m 8,3 km/h (2 Bft)
20.08.2014 14:00 17,0 C 61 % 1014,1 hPa 0,0 l/m SO 0,17 h 348 W/m 7,4 km/h (2 Bft)
20.08.2014 15:00 17,3 C 63 % 1013,7 hPa 0,0 l/m SO 0,17 h 339 W/m 7,5 km/h (2 Bft)
20.08.2014 16:00 17,3 C 64 % 1013,4 hPa 0,0 l/m O-SO 0,00 h 175 W/m 9,2 km/h (2 Bft)
20.08.2014 17:00 17,0 C 66 % 1013,3 hPa 0,0 l/m O-SO 0,33 h 215 W/m 8,2 km/h (2 Bft)
20.08.2014 18:00 16,6 C 69 % 1013,2 hPa 0,0 l/m SO 0,00 h 93 W/m 7,5 km/h (2 Bft)
20.08.2014 19:00 15,7 C 76 % 1013,2 hPa 0,0 l/m SO 0,00 h 30 W/m 3,2 km/h (1 Bft)
20.08.2014 20:00 14,7 C 83 % 1013,3 hPa 0,8 l/m N-NW 0,00 h 0 W/m 7,4 km/h (2 Bft)
20.08.2014 21:00 12,0 C 92 % 1014,0 hPa 0,0 l/m N-NW 0,00 h 0 W/m 4,5 km/h (1 Bft)
20.08.2014 22:00 11,8 C 95 % 1014,4 hPa 0,2 l/m N-NW 0,00 h 0 W/m 4,5 km/h (1 Bft)
20.08.2014 23:00 11,6 C 96 % 1014,4 hPa 0,0 l/m N-NW 0,00 h 0 W/m 4,8 km/h (1 Bft)
21.08.2014 00:00 10,8 C 96 % 1014,5 hPa 0,0 l/m N 0,00 h 0 W/m 3,3 km/h (1 Bft)
21.08.2014 01:00 10,2 C 96 % 1015,1 hPa 0,0 l/m N-NW 0,00 h 0 W/m 4,7 km/h (1 Bft)
21.08.2014 02:00 10,3 C 95 % 1015,2 hPa 0,0 l/m N-NW 0,00 h 0 W/m 1,5 km/h (1 Bft)
21.08.2014 03:00 10,4 C 94 % 1015,5 hPa 0,2 l/m N 0,00 h 0 W/m 1,6 km/h (1 Bft)
21.08.2014 04:00 10,2 C 95 % 1015,8 hPa 0,0 l/m N 0,00 h 0 W/m 0,7 km/h (0 Bft)
21.08.2014 05:00 9,7 C 95 % 1015,8 hPa 0,0 l/m N 0,00 h 0 W/m 0,0 km/h (0 Bft)
21.08.2014 06:00 9,0 C 96 % 1016,1 hPa 0,0 l/m N 0,00 h 13 W/m 0,0 km/h (0 Bft)
21.08.2014 07:00 9,7 C 97 % 1016,3 hPa 0,0 l/m N 0,50 h 89 W/m 0,0 km/h (0 Bft)
21.08.2014 08:00 12,4 C 91 % 1016,5 hPa 0,0 l/m N 1,00 h 257 W/m 0,3 km/h (0 Bft)
21.08.2014 09:00 13,9 C 82 % 1016,5 hPa 0,0 l/m N 1,00 h 428 W/m 0,0 km/h (0 Bft)
21.08.2014 10:00 15,2 C 73 % 1016,4 hPa 0,0 l/m S-SO 0,75 h 551 W/m 6,9 km/h (2 Bft)
21.08.2014 11:00 16,2 C 69 % 1016,2 hPa 0,0 l/m N 0,50 h 514 W/m 9,4 km/h (2 Bft)
21.08.2014 12:00 15,5 C 67 % 1015,9 hPa 0,0 l/m N 0,08 h 214 W/m 4,9 km/h (1 Bft)
21.08.2014 13:00 16,7 C 62 % 1015,8 hPa 0,0 l/m W-SW 0,33 h 415 W/m 8,5 km/h (2 Bft)
21.08.2014 14:00 17,6 C 57 % 1015,4 hPa 0,0 l/m O-SO 0,25 h 336 W/m 9,3 km/h (2 Bft)
21.08.2014 15:00 18,4 C 54 % 1014,8 hPa 0,0 l/m N-NW 1,00 h 632 W/m 7,9 km/h (2 Bft)
21.08.2014 16:00 19,1 C 51 % 1014,3 hPa 0,0 l/m W 1,00 h 616 W/m 10,6 km/h (2 Bft)
21.08.2014 17:00 19,0 C 50 % 1014,1 hPa 0,0 l/m NW 0,67 h 355 W/m 4,9 km/h (1 Bft)
21.08.2014 18:00 17,8 C 56 % 1014,0 hPa 0,0 l/m NW 0,33 h 184 W/m 4,0 km/h (1 Bft)
21.08.2014 19:00 17,3 C 60 % 1014,0 hPa 0,0 l/m NW 0,42 h 90 W/m 2,5 km/h (1 Bft)
21.08.2014 20:00 14,8 C 72 % 1014,1 hPa 0,0 l/m N 0,08 h 11 W/m 0,7 km/h (0 Bft)
21.08.2014 21:00 12,6 C 81 % 1014,6 hPa 0,0 l/m NW 0,00 h 0 W/m 1,3 km/h (1 Bft)
21.08.2014 22:00 11,4 C 84 % 1014,7 hPa 0,0 l/m NW 0,00 h 0 W/m 2,4 km/h (1 Bft)
21.08.2014 23:00 11,2 C 83 % 1014,9 hPa 0,0 l/m NW 0,00 h 0 W/m 4,9 km/h (1 Bft)
22.08.2014 00:00 10,6 C 86 % 1014,8 hPa 0,0 l/m NW 0,00 h 0 W/m 3,2 km/h (1 Bft)
22.08.2014 01:00 10,0 C 88 % 1014,8 hPa 0,0 l/m NW 0,00 h 0 W/m 3,3 km/h (1 Bft)
22.08.2014 02:00 9,0 C 91 % 1014,6 hPa 0,0 l/m N 0,00 h 0 W/m 0,3 km/h (0 Bft)
22.08.2014 03:00 8,7 C 93 % 1014,5 hPa 0,0 l/m N 0,00 h 0 W/m 0,5 km/h (0 Bft)
22.08.2014 04:00 8,1 C 94 % 1014,3 hPa 0,0 l/m N 0,00 h 0 W/m 0,3 km/h (0 Bft)
22.08.2014 05:00 8,2 C 95 % 1014,1 hPa 0,0 l/m NW 0,00 h 0 W/m 2,7 km/h (1 Bft)
22.08.2014 06:00 8,3 C 94 % 1014,1 hPa 0,0 l/m N-NW 0,00 h 10 W/m 5,2 km/h (1 Bft)
22.08.2014 07:00 8,4 C 95 % 1014,5 hPa 0,0 l/m N 0,00 h 46 W/m 0,7 km/h (0 Bft)
22.08.2014 08:00 10,2 C 92 % 1014,6 hPa 0,0 l/m N-NW 0,42 h 197 W/m 2,8 km/h (1 Bft)
22.08.2014 09:00 12,2 C 86 % 1014,8 hPa 0,0 l/m N-NW 0,00 h 179 W/m 2,1 km/h (1 Bft)
22.08.2014 10:00 14,3 C 78 % 1015,0 hPa 0,0 l/m SW 0,67 h 411 W/m 7,6 km/h (2 Bft)
22.08.2014 11:00 16,5 C 66 % 1014,6 hPa 0,0 l/m SW 0,67 h 641 W/m 12,1 km/h (2 Bft)
22.08.2014 12:00 18,1 C 60 % 1014,2 hPa 0,0 l/m S-SW 0,92 h 764 W/m 16,1 km/h (3 Bft)
22.08.2014 13:00 18,9 C 53 % 1013,9 hPa 0,0 l/m SW 0,75 h 668 W/m 16,2 km/h (3 Bft)
22.08.2014 14:00 19,7 C 52 % 1013,4 hPa 0,0 l/m W-SW 1,00 h 827 W/m 22,5 km/h (4 Bft)
22.08.2014 15:00 20,3 C 48 % 1013,0 hPa 0,0 l/m W 0,83 h 668 W/m 21,4 km/h (4 Bft)
22.08.2014 16:00 20,8 C 47 % 1012,5 hPa 0,0 l/m W 0,92 h 591 W/m 21,7 km/h (4 Bft)
22.08.2014 17:00 20,5 C 49 % 1012,4 hPa 0,0 l/m W 0,92 h 423 W/m 16,8 km/h (3 Bft)
22.08.2014 18:00 19,6 C 52 % 1012,3 hPa 0,0 l/m W 0,83 h 249 W/m 11,5 km/h (2 Bft)
22.08.2014 19:00 17,4 C 64 % 1012,4 hPa 0,0 l/m W 0,08 h 34 W/m 4,8 km/h (1 Bft)
22.08.2014 20:00 14,4 C 78 % 1012,8 hPa 0,0 l/m W 0,08 h 8 W/m 2,1 km/h (1 Bft)
22.08.2014 21:00 12,9 C 84 % 1013,5 hPa 0,0 l/m N 0,00 h 0 W/m 0,1 km/h (0 Bft)
22.08.2014 22:00 12,3 C 84 % 1013,9 hPa 0,0 l/m W 0,00 h 0 W/m 3,6 km/h (1 Bft)
22.08.2014 23:00 13,0 C 77 % 1013,9 hPa 0,0 l/m W 0,00 h 0 W/m 6,3 km/h (2 Bft)
23.08.2014 00:00 14,1 C 71 % 1014,0 hPa 0,0 l/m W 0,00 h 0 W/m 7,0 km/h (2 Bft)
23.08.2014 01:00 13,0 C 80 % 1013,9 hPa 0,0 l/m N 0,00 h 0 W/m 0,5 km/h (0 Bft)
23.08.2014 02:00 11,7 C 87 % 1013,8 hPa 0,0 l/m N 0,00 h 0 W/m 1,9 km/h (1 Bft)
23.08.2014 03:00 11,8 C 88 % 1013,6 hPa 0,0 l/m N 0,00 h 0 W/m 0,3 km/h (0 Bft)
23.08.2014 04:00 11,1 C 91 % 1013,4 hPa 0,0 l/m W 0,00 h 0 W/m 0,8 km/h (0 Bft)
23.08.2014 05:00 10,0 C 94 % 1013,2 hPa 0,0 l/m N 0,00 h 0 W/m 0,0 km/h (0 Bft)
23.08.2014 06:00 9,4 C 95 % 1013,1 hPa 0,0 l/m N 0,00 h 10 W/m 0,0 km/h (0 Bft)
23.08.2014 07:00 10,3 C 94 % 1013,4 hPa 0,0 l/m N 0,00 h 46 W/m 0,5 km/h (0 Bft)
23.08.2014 08:00 12,1 C 87 % 1013,7 hPa 0,0 l/m W-NW 0,08 h 115 W/m 7,5 km/h (2 Bft)
23.08.2014 09:00 12,9 C 81 % 1013,7 hPa 0,0 l/m W-NW 0,00 h 52 W/m 5,5 km/h (1 Bft)
23.08.2014 10:00 13,2 C 81 % 1013,9 hPa 0,0 l/m W-NW 0,00 h 73 W/m 4,1 km/h (1 Bft)
23.08.2014 11:00 14,1 C 81 % 1014,0 hPa 0,0 l/m SW 0,00 h 163 W/m 9,7 km/h (2 Bft)
23.08.2014 12:00 15,6 C 75 % 1013,9 hPa 0,0 l/m SW 0,00 h 260 W/m 14,0 km/h (3 Bft)
23.08.2014 13:00 16,8 C 73 % 1013,6 hPa 0,0 l/m SW 0,67 h 533 W/m 18,0 km/h (3 Bft)
23.08.2014 14:00 16,8 C 73 % 1013,4 hPa 0,0 l/m SW 0,17 h 371 W/m 22,5 km/h (4 Bft)
23.08.2014 15:00 17,5 C 68 % 1012,9 hPa 0,0 l/m SW 0,58 h 486 W/m 24,8 km/h (4 Bft)
23.08.2014 16:00 17,2 C 66 % 1012,7 hPa 0,0 l/m W-SW 0,17 h 225 W/m 20,5 km/h (4 Bft)
23.08.2014 17:00 16,2 C 69 % 1013,0 hPa 0,0 l/m W 0,00 h 83 W/m 16,9 km/h (3 Bft)
23.08.2014 18:00 16,0 C 68 % 1013,3 hPa 0,0 l/m W 0,33 h 118 W/m 14,6 km/h (3 Bft)
23.08.2014 19:00 15,1 C 72 % 1013,5 hPa 0,0 l/m W-SW 0,00 h 23 W/m 12,6 km/h (3 Bft)
23.08.2014 20:00 13,9 C 78 % 1014,2 hPa 0,0 l/m N-NW 0,00 h 7 W/m 9,5 km/h (2 Bft)
23.08.2014 21:00 13,0 C 79 % 1015,0 hPa 0,0 l/m W 0,00 h 0 W/m 7,6 km/h (2 Bft)
23.08.2014 22:00 12,7 C 80 % 1015,3 hPa 0,0 l/m W 0,00 h 0 W/m 7,4 km/h (2 Bft)
23.08.2014 23:00 12,3 C 83 % 1015,7 hPa 0,0 l/m W 0,00 h 0 W/m 5,6 km/h (1 Bft)
24.08.2014 00:00 11,8 C 84 % 1015,7 hPa 0,0 l/m W 0,00 h 0 W/m 5,1 km/h (1 Bft)
24.08.2014 01:00 11,7 C 83 % 1015,8 hPa 0,0 l/m W 0,00 h 0 W/m 4,0 km/h (1 Bft)
24.08.2014 02:00 11,5 C 89 % 1015,6 hPa 0,0 l/m W 0,00 h 0 W/m 1,6 km/h (1 Bft)
24.08.2014 03:00 10,9 C 92 % 1015,9 hPa 0,2 l/m W 0,00 h 0 W/m 4,7 km/h (1 Bft)
24.08.2014 04:00 10,3 C 93 % 1015,9 hPa 0,4 l/m W 0,00 h 0 W/m 4,0 km/h (1 Bft)
24.08.2014 05:00 10,1 C 95 % 1016,2 hPa 0,2 l/m W 0,00 h 0 W/m 5,7 km/h (1 Bft)
24.08.2014 06:00 9,9 C 95 % 1017,1 hPa 0,0 l/m W 0,00 h 11 W/m 8,0 km/h (2 Bft)
24.08.2014 07:00 9,8 C 94 % 1018,0 hPa 0,0 l/m W 0,08 h 67 W/m 6,7 km/h (2 Bft)
24.08.2014 08:00 10,7 C 89 % 1018,5 hPa 0,0 l/m W 1,00 h 238 W/m 13,0 km/h (3 Bft)
24.08.2014 09:00 12,1 C 81 % 1019,0 hPa 0,0 l/m W 1,00 h 417 W/m 16,4 km/h (3 Bft)
24.08.2014 10:00 12,9 C 71 % 1019,5 hPa 0,0 l/m W-SW 0,42 h 321 W/m 14,0 km/h (3 Bft)
24.08.2014 11:00 13,5 C 65 % 1019,6 hPa 0,0 l/m W-NW 0,33 h 421 W/m 16,8 km/h (3 Bft)
24.08.2014 12:00 14,0 C 64 % 1019,3 hPa 0,0 l/m W 0,25 h 366 W/m 14,0 km/h (3 Bft)
24.08.2014 13:00 14,5 C 64 % 1019,0 hPa 0,0 l/m W-SW 0,33 h 428 W/m 16,2 km/h (3 Bft)
24.08.2014 14:00 15,2 C 59 % 1018,7 hPa 0,0 l/m W-SW 0,17 h 338 W/m 17,8 km/h (3 Bft)
24.08.2014 15:00 16,1 C 56 % 1018,2 hPa 0,0 l/m W 0,33 h 490 W/m 18,8 km/h (3 Bft)
24.08.2014 16:00 16,5 C 55 % 1017,9 hPa 0,0 l/m W 0,75 h 603 W/m 17,6 km/h (3 Bft)
24.08.2014 17:00 16,5 C 54 % 1017,8 hPa 0,0 l/m W-SW 0,50 h 308 W/m 13,4 km/h (3 Bft)
24.08.2014 18:00 15,0 C 59 % 1017,7 hPa 0,0 l/m W-NW 0,08 h 101 W/m 12,1 km/h (2 Bft)
24.08.2014 19:00 14,3 C 66 % 1017,8 hPa 0,0 l/m N-NW 0,25 h 62 W/m 6,5 km/h (2 Bft)
24.08.2014 20:00 11,9 C 78 % 1018,3 hPa 0,0 l/m N 0,00 h 8 W/m 1,2 km/h (1 Bft)
24.08.2014 21:00 10,6 C 85 % 1018,6 hPa 0,0 l/m N 0,00 h 0 W/m 0,4 km/h (0 Bft)
24.08.2014 22:00 9,9 C 89 % 1018,7 hPa 0,0 l/m N 0,00 h 0 W/m 0,1 km/h (0 Bft)
24.08.2014 23:00 10,2 C 92 % 1018,7 hPa 0,0 l/m N 0,00 h 0 W/m 0,4 km/h (0 Bft)
Min-Datum _ 22.08.14 22.08.14 18.08.14 - - - - 18.08.14
_ Min-Zeit 04:50 15:55 15:35 - - - - 21:40
Minimum _ 8,0 C 46 % 1008,1 hPa - - - - 0,0 km/h (0 Bft)
Max-Datum _ 18.08.14 19.08.14 24.08.14 19.08.14 - 18.08.14 18.08.14 18.08.14
_ Max-Zeit 17:00 07:05 10:30 03:45 - 10:15 14:35 13:15
Maximum _ 21,5 C 98 % 1019,7 hPa 1,2 l/m - 0,08 h 1114 W/m 41,8 km/h
W (6 Bft)
Durchschnitt _ 14,0 C 78 % 1013,6 hPa #3,2 l/m W #32:20 h 265 W/m 8,2 km/h (2 Bft)